Crooked Creek Research Lab Weather observations

Data are for 10 minute period ending at time listed.
 Day   Time    Ave.   Ave.  Ave.  Vector   Max.   Stn.    Total    Solar   Ave.   Snow 
  of    of     Air    Rel.  Wind   Wind    Wind   Baro.  Precip.   Rad.    Soil   Depth
Year   Day     Temp.  Hum.  Speed  Dir.    Gust   Pres.                    Temp.       
2016   (PST)    F      %     mph   deg.    mph     mb.     in.     W/m2     F      in. 
---------------------------------------------------------------------------------------  
 336   16:40   14.5    94    7.1    40     13.2   695.8    0.00       2    999.0    -0.5
 336   16:50   14.4    93    6.1    46     13.3   695.8    0.00       0    999.0    -0.5
 336   17:00   14.4    93    5.2    52     11.0   695.8    0.00       0    999.0    -0.5
 336   17:10   14.3    92    3.7    58      8.7   695.8    0.00       0    999.0    -0.5
 336   17:20   14.1    91    1.9    45      5.3   695.8    0.00       0    999.0    -0.6
 336   17:30   13.8    91    3.6    33     10.7   695.7    0.00       0    999.0    -0.6
 336   17:40   13.4    91    5.0     6     10.6   695.6    0.00       0    999.0    -0.6
 336   17:50   13.1    92    4.5   340      7.8   695.8    0.00       0    999.0    -0.6
 336   18:00   13.0    92    1.9   320      5.3   696.0    0.00       0    999.0    -0.6
 336   18:10   12.9    90    1.4   120      3.7   695.9    0.00       0    999.0    -0.6
 336   18:20   12.9    91    1.7    68      4.7   695.8    0.00       0    999.0    -0.6
 336   18:30   12.8    91    2.7    60      8.5   695.8    0.00       0    999.0    -0.7
 336   18:40   12.6    91    2.0   145      6.4   695.8    0.00       0    999.0    -0.7
 336   18:50   12.5    90    3.1    40     11.4   695.8    0.00       0    999.0    -0.7
 336   19:00   12.3    90    4.4    44     15.7   696.0    0.00       0    999.0    -0.7
 336   19:10   12.1    89    5.0    60     11.1   696.0    0.00       0    999.0    -0.7
 336   19:20   11.9    88    6.2    39     15.6   696.1    0.00       0    999.0    -0.7
 336   19:30   11.7    88    6.8    40     18.7   695.9    0.00       0    999.0    -0.7
 336   19:40   11.7    88    6.8    40     15.6   696.1    0.00       0    999.0    -0.7
 336   19:50   11.6    90    5.6    54     18.3   696.2    0.00       0    999.0    -0.7
 336   20:00   11.4    91    6.1    66     14.0   696.2    0.00       0    999.0    -0.7
 336   20:10   11.1    91    7.6    46     14.9   696.2    0.00       0    999.0    -0.7
 336   20:20   10.8    90    8.2    41     15.3   696.3    0.00       0    999.0    -0.7
 336   20:30   10.6    90    6.6    48     14.3   696.3    0.00       0    999.0    -0.7
 336   20:40   10.5    90    7.2    50     16.8   696.3    0.00       0    999.0    -0.7
 336   20:50   10.4    88    5.2    51     14.2   696.2    0.00       0    999.0    -0.7
 336   21:00   10.5    85    8.0    37     19.7   696.3    0.00       0    999.0    -0.7
 336   21:10   10.5    88    9.8    41     21.0   696.3    0.00       0    999.0    -0.7
 336   21:20   10.4    88    8.6    49     18.6   696.3    0.00       0    999.0    -0.7
 336   21:30   10.3    86    9.3    44     17.8   696.3    0.00       0    999.0    -0.7
 336   21:40   10.3    84   10.2    42     15.7   696.3    0.00       0    999.0    -0.7
 336   21:50   10.1    85    9.3    43     18.5   696.4    0.00       0    999.0    -0.7
 336   22:00   10.0    88    8.8    44     22.7   696.6    0.00       0    999.0    -0.7
 336   22:10   10.1    89    8.6    42     18.3   696.5    0.00       0    999.0    -0.7
 336   22:20   10.0    90    9.0    48     23.2   696.6    0.00       0    999.0    -0.7
 336   22:30    9.7    89   10.2    58     17.0   696.5    0.00       0    999.0    -0.7
 336   22:40    9.6    87   10.1    49     21.4   696.5    0.00       0    999.0    -0.7
 336   22:50    9.2    90    7.4    38     16.6   696.6    0.00       0    999.0    -0.7
 336   23:00    8.7    90    7.6    58     14.2   696.5    0.00       0    999.0    -0.8
 336   23:10    8.5    88    6.5    60     13.0   696.6    0.00       0    999.0    -0.7
 336   23:20    8.1    90    6.0    61     11.2   696.6    0.00       0    999.0    -0.7
 336   23:30    8.0    89    8.0    78     12.9   696.7    0.00       0    999.0    -0.7
 336   23:40    8.0    88    7.4    58     15.2   696.6    0.00       0    999.0    -0.7
 336   23:50    7.7    86    5.8    15     11.5   696.6    0.00       0    999.0    -0.7
 337    0:00    7.2    84    7.5   310     14.4   696.5    0.00       0    999.0    -0.7
 337    0:10    7.1    83    3.6    62     10.7   696.2    0.00       0    999.0    -0.7
 337    0:20    7.0    80    3.6    78      9.3   696.2    0.00       0    999.0    -0.7
 337    0:30    6.7    79    4.0    79      8.3   696.2    0.00       0    999.0    -0.8
 337    0:40    6.3    78    2.6    21      7.9   696.1    0.00       0    999.0    -0.8
 337    0:50    4.4    80    2.3   162      6.1   696.0    0.00       0    999.0    -0.9
 337    1:00    5.1    79    4.0   142      7.8   696.0    0.00       0    999.0    -0.8
 337    1:10    6.0    73    3.0   130      6.7   696.0    0.00       0    999.0    -0.8
 337    1:20    5.5    71    2.6   166      7.9   696.0    0.00       0    999.0    -0.9
 337    1:30    5.1    65    3.8   226      9.3   695.9    0.00       0    999.0    -0.7
 337    1:40    7.4    54    3.3   166      7.0   695.9    0.00       0    999.0    -0.9
 337    1:50    8.1    50    2.6   157      9.0   695.9    0.00       0    999.0    -0.7
 337    2:00    8.0    52    2.3    58      6.7   696.0    0.00       0    999.0    -0.8
 337    2:10    7.3    62    3.7   292      9.9   696.1    0.00       0    999.0    -0.8
 337    2:20    6.8    62    3.1   265      8.3   695.9    0.00       0    999.0    -0.7
 337    2:30    7.9    54    5.7   308     11.5   695.8    0.00       0    999.0    -0.7
 337    2:40    8.1    53    4.2   336     14.6   695.8    0.00       0    999.0    -0.7
 337    2:50    7.6    56    3.6   304      7.3   695.9    0.00       0    999.0    -0.8
 337    3:00    6.4    65    4.2   317     10.5   695.8    0.00       0    999.0    -0.7
 337    3:10    5.4    71    3.7   288      8.9   695.8    0.00       0    999.0    -0.7
 337    3:20    4.9    74    4.6   291      9.6   695.6    0.00       0    999.0    -0.7
 337    3:30    4.5    70    2.3   286      7.3   695.6    0.00       0    999.0    -0.9
 337    3:40    4.6    68    3.2   319     10.5   695.5    0.00       0    999.0    -0.7
 337    3:50    5.4    70    4.4   301      9.9   695.5    0.00       0    999.0    -0.6
 337    4:00    4.6    70    1.4   175      4.5   695.5    0.00       0    999.0    -0.9
 337    4:10    3.1    74    1.7   123      6.7   695.5    0.00       0    999.0    -0.8
 337    4:20    3.9    78    3.6   259      9.1   695.5    0.00       0    999.0    -0.7
 337    4:30    4.0    74    2.3   104     10.7   695.4    0.00       0    999.0    -0.6
 337    4:40    5.7    61    2.6   338      7.2   695.5    0.00       0    999.0    -0.6
 337    4:50    5.2    69    3.9   317     13.1   695.9    0.00       0    999.0    -0.8
 337    5:00    5.0    72    2.3   352      6.8   695.9    0.00       0    999.0    -0.7
 337    5:10    4.7    75    3.5   336     10.1   695.9    0.00       0    999.0    -0.7
 337    5:20    3.7    81    2.5    72     13.7   696.1    0.00       0    999.0    -0.7
 337    5:30    3.8    85    3.4    50     12.4   696.1    0.00       0    999.0    -0.7
 337    5:40    3.7    87    4.0    41     11.0   696.4    0.00       0    999.0    -0.7
 337    5:50    3.8    89    7.0    48     14.5   696.4    0.00       0    999.0    -0.7
 337    6:00    4.2    89    5.8    62     15.2   696.4    0.00       0    999.0    -0.7
 337    6:10    4.2    89    5.1    49     17.1   696.6    0.00       0    999.0    -0.7
 337    6:20    4.3    89    8.0    40     19.8   696.9    0.00       0    999.0    -0.7
 337    6:30    4.3    89    4.4    44     14.2   696.8    0.00       0    999.0    -0.7
 337    6:40    4.2    88    4.3    37     13.4   696.9    0.00       1    999.0    -0.7
 337    6:50    4.1    88    7.1    54     17.0   697.1    0.00       4    999.0    -0.7
 337    7:00    4.0    88    7.8    44     14.1   697.1    0.00      11    999.0    -0.7
 337    7:10    4.0    87    8.3    57     18.7   697.2    0.00      12    999.0    -0.7
 337    7:20    4.0    87    8.6    52     17.0   697.6    0.00      21    999.0    -0.7
 337    7:30    4.0    86    8.4    47     15.3   697.7    0.00      29    999.0    -0.7
 337    7:40    4.2    84    8.3    48     19.6   697.7    0.00      20    999.0    -0.7
 337    7:50    5.1    71    9.5    58     23.5   697.8    0.00      18    999.0    -0.7
 337    8:00    6.8    55   10.2    54     24.0   698.1    0.00     152    999.0    -0.6
 337    8:10    9.0    42    9.4    38     21.0   698.0    0.00     253    999.0    -0.6
 337    8:20    9.8    39   10.6    44     27.4   698.1    0.00     273    999.0    -0.5
 337    8:30   10.1    39   11.4    51     23.9   698.0    0.00     291    999.0    -0.5
 337    8:40   10.4    40   10.0    55     25.8   698.1    0.00     314    999.0    -0.6
 337    8:50   10.4    41   11.7    65     28.6   698.3    0.00     338    999.0    -0.3
 337    9:00   10.5    42   10.5    66     20.0   698.6    0.00     362    999.0    -0.3
 337    9:10   10.8    41    9.5    71     18.0   698.6    0.00     385    999.0    -0.3
 337    9:20   11.5    39    9.6    60     18.5   698.9    0.00     407    999.0    -0.1
 337    9:30   12.3    38    9.0    58     17.8   699.0    0.00     427    999.0    -0.2
 337    9:40   12.8    37    8.8    42     23.4   699.1    0.00     445    999.0    -0.2
 337    9:50   13.5    34    8.3    44     21.9   699.2    0.00     463    999.0    -0.2
 337   10:00   14.1    32    7.5    33     19.3   699.1    0.00     479    999.0    -0.3
 337   10:10   15.0    28    9.7    41     27.2   699.3    0.00     494    999.0    -0.3
 337   10:20   15.4    26    8.2    35     25.6   699.5    0.00     507    999.0    -0.5
 337   10:30   15.7    26    8.8    42     21.3   699.5    0.00     519    999.0    -0.9
 337   10:40   16.4    27    7.4    45     17.9   699.8    0.00     529    999.0    -0.9
 337   10:50   16.1    29    8.0    40     23.1   699.4    0.00     536    999.0    -1.0
 337   11:00   16.5    29    7.3    45     20.8   699.4    0.00     543    999.0    -1.0
 337   11:10   17.0    27    8.5    51     23.2   699.5    0.00     549    999.0    -0.9
 337   11:20   17.2    25   10.1    60     22.3   699.3    0.00     553    999.0    -0.9
 337   11:30   17.8    25    7.9    56     22.2   699.4    0.00     554    999.0    -0.6
 337   11:40   17.9    25    8.7    60     18.1   699.2    0.00     555    999.0    -0.4
 337   11:50   18.1    25    7.9    62     18.7   699.2    0.00     553    999.0    -0.4
 337   12:00   18.4    27    8.9    58     20.9   699.2    0.00     550    999.0    -0.4
 337   12:10   18.8    25    8.7    59     20.2   699.4    0.00     545    999.0    -0.4
 337   12:20   19.4    23    7.7    56     19.9   699.3    0.00     539    999.0    -0.4
 337   12:30   19.8    21    7.3    62     21.7   700.7    0.00     531    999.0    -0.6
 337   12:40   19.9    21    9.5    59     19.9   701.9    0.00     522    999.0    -0.6
 337   12:50   20.3    20    7.1    64     18.0   700.5    0.00     511    999.0    -0.7
 337   13:00   20.4    18    8.4    56     19.6   700.1    0.00     498    999.0    -0.7
 337   13:10   19.9    18   10.3    56     21.6   700.1    0.00     484    999.0    -0.8
 337   13:20   20.1    19    9.6    56     20.1   700.2    0.00     467    999.0    -0.9
 337   13:30   20.2    18    8.5    53     24.2   700.9    0.00     450    999.0    -0.8
 337   13:40   20.4    18    8.5    57     18.0   700.3    0.00     432    999.0    -0.8
 337   13:50   20.3    18    9.3    52     20.8   700.6    0.00     411    999.0    -0.8
 337   14:00   19.9    17   10.1    58     26.3   700.5    0.00     391    999.0    -0.8
 337   14:10   19.7    17   10.7    57     27.1   701.0    0.00     368    999.0    -0.8
 337   14:20   19.5    17    9.7    52     20.8   701.1    0.00     344    999.0    -0.8
 337   14:30   19.6    16    9.4    45     25.6   701.4    0.00     320    999.0    -0.8
 337   14:40   19.5    16   10.6    51     26.7   701.6    0.00     294    999.0    -0.7
 337   14:50   19.4    15    9.7    58     22.4   701.6    0.00     268    999.0    -0.7
 337   15:00   19.6    14    9.6    60     20.0   701.4    0.00     242    999.0    -0.7
 337   15:10   19.5    14    9.4    46     23.6   701.2    0.00     215    999.0    -0.6
 337   15:20   19.2    14   10.2    66     25.0   701.3    0.00     104    999.0    -0.5
 337   15:30   18.8    13   10.1    56     25.1   701.8    0.00      56    999.0    -0.5
 337   15:40   18.8    13    7.7    54     20.2   701.4    0.00      85    999.0    -0.5
 337   15:50   19.1    12    6.7    57     16.9   701.4    0.00      77    999.0    -0.6
 337   16:00   17.9    13    5.2    59     16.2   701.6    0.00      13    999.0    -0.6
 337   16:10   17.4    13    6.1    69     15.5   701.2    0.00      10    999.0    -0.5
 337   16:20   17.3    12    5.0    62     18.4   701.2    0.00       8    999.0    -0.5
 337   16:30   17.3    12    7.0    52     17.8   701.3    0.00       4    999.0    -0.5

Return to Crooked Creek Research Lab graphs page.


Western Regional Climate Center,wrcc@dri.edu